Time;durP1;ratioP1;P1;durP2;ratioP2;P2;SDS_P1;SDS_P2;PMS_P1;PMS_P2;Temp;Humidity;BMP_temperature;BMP_pressure;BME280_temperature;BME280_humidity;BME280_pressure;Samples;Min_cycle;Max_cycle;Signal;HPM_P1;HPM_P2
2022/04/30 00:02:01;;;;;;;30.20;18.15;;;;;;;;;;5051845;28;20021;-76
2022/04/30 00:04:26;;;;;;;30.27;18.92;;;;;;;;;;5050224;28;20013;-75
2022/04/30 00:06:52;;;;;;;28.08;18.00;;;;;;;;;;5051022;28;20397;-76
2022/04/30 00:09:17;;;;;;;28.42;18.17;;;;;;;;;;5050983;28;20119;-75
2022/04/30 00:11:42;;;;;;;30.27;19.05;;;;;;;;;;5051531;28;20547;-75
2022/04/30 00:14:08;;;;;;;29.40;18.48;;;;;;;;;;5050551;28;20037;-75
2022/04/30 00:16:33;;;;;;;27.95;17.10;;;;;;;;;;5051513;28;20031;-76
2022/04/30 00:18:59;;;;;;;26.45;17.85;;;;;;;;;;5049806;28;20033;-76
2022/04/30 00:21:24;;;;;;;30.23;18.35;;;;;;;;;;5051499;28;20028;-76
2022/04/30 00:23:49;;;;;;;27.75;18.25;;;;;;;;;;5049664;28;20044;-76
2022/04/30 00:26:15;;;;;;;28.65;19.00;;;;;;;;;;5051201;28;20021;-75
2022/04/30 00:28:41;;;;;;;27.27;17.75;;;;;;;;;;5050981;28;20024;-75
2022/04/30 00:31:07;;;;;;;32.75;19.80;;;;;;;;;;5051144;28;20109;-75
2022/04/30 00:33:32;;;;;;;30.73;18.45;;;;;;;;;;5050310;28;20107;-76
2022/04/30 00:35:59;;;;;;;30.52;18.70;;;;;;;;;;5050513;28;20040;-76
2022/04/30 00:38:25;;;;;;;31.80;19.27;;;;;;;;;;5050870;28;20490;-76
2022/04/30 00:40:50;;;;;;;31.52;19.10;;;;;;;;;;5050781;28;20111;-76
2022/04/30 00:43:16;;;;;;;27.90;18.67;;;;;;;;;;5050124;28;20104;-76
2022/04/30 00:45:46;;;;;;;29.73;19.27;;;;;;;;;;5051167;28;20098;-75
2022/04/30 00:48:11;;;;;;;34.10;20.17;;;;;;;;;;5050739;28;20032;-75
2022/04/30 00:50:37;;;;;;;30.25;19.02;;;;;;;;;;5050748;28;20029;-75
2022/04/30 00:53:03;;;;;;;32.58;19.60;;;;;;;;;;5049958;28;20036;-75
2022/04/30 00:55:31;;;;;;;32.05;19.55;;;;;;;;;;5050493;28;20039;-76
2022/04/30 00:58:00;;;;;;;32.05;19.60;;;;;;;;;;5049095;28;20123;-75
2022/04/30 01:00:27;;;;;;;29.75;19.30;;;;;;;;;;5050505;28;20025;-76
2022/04/30 01:02:52;;;;;;;31.77;21.25;;;;;;;;;;5049081;28;20119;-76
2022/04/30 01:05:17;;;;;;;30.73;20.20;;;;;;;;;;5049825;28;20028;-76
2022/04/30 01:07:43;;;;;;;29.38;19.58;;;;;;;;;;5050301;28;20097;-76
2022/04/30 01:10:09;;;;;;;32.78;21.52;;;;;;;;;;5049969;28;20078;-75
2022/04/30 01:12:35;;;;;;;30.98;19.48;;;;;;;;;;5049564;28;20174;-76
2022/04/30 01:15:04;;;;;;;29.40;20.48;;;;;;;;;;5050142;28;20518;-76
2022/04/30 01:17:30;;;;;;;28.98;19.10;;;;;;;;;;5050510;28;20025;-75
2022/04/30 01:19:56;;;;;;;33.20;20.88;;;;;;;;;;5049066;28;20032;-75
2022/04/30 01:22:30;;;;;;;31.42;20.45;;;;;;;;;;5049989;28;20028;-76
2022/04/30 01:24:58;;;;;;;34.25;20.77;;;;;;;;;;5050148;28;20028;-76
2022/04/30 01:27:28;;;;;;;36.20;20.60;;;;;;;;;;5048769;28;20107;-76
2022/04/30 01:29:54;;;;;;;35.75;20.58;;;;;;;;;;5049000;28;20033;-75
2022/04/30 01:38:07;;;;;;;38.70;22.05;;;;;;;;;;5048964;28;20031;-75
2022/04/30 01:40:33;;;;;;;34.78;21.75;;;;;;;;;;5049071;28;20028;-75
2022/04/30 01:43:01;;;;;;;31.60;21.10;;;;;;;;;;5049448;28;20399;-76
2022/04/30 01:45:27;;;;;;;31.60;20.60;;;;;;;;;;5049641;28;20029;-76
2022/04/30 01:47:56;;;;;;;35.53;21.83;;;;;;;;;;5048639;28;20467;-75
2022/04/30 01:50:21;;;;;;;33.45;21.15;;;;;;;;;;5048667;28;20027;-76
2022/04/30 01:52:47;;;;;;;33.50;21.20;;;;;;;;;;5049603;28;20024;-76
2022/04/30 01:55:12;;;;;;;35.42;20.80;;;;;;;;;;5049487;28;20167;-76
2022/04/30 01:57:39;;;;;;;33.08;19.80;;;;;;;;;;5049508;28;20389;-76
2022/04/30 02:00:05;;;;;;;32.08;20.55;;;;;;;;;;5048282;28;20037;-76
2022/04/30 02:02:37;;;;;;;34.00;21.98;;;;;;;;;;5048152;28;20021;-76
2022/04/30 02:05:06;;;;;;;32.28;20.42;;;;;;;;;;5049789;28;20091;-76
2022/04/30 02:07:38;;;;;;;33.35;20.83;;;;;;;;;;5049812;28;20238;-76
2022/04/30 02:10:06;;;;;;;33.78;21.38;;;;;;;;;;5047705;28;20025;-76
2022/04/30 02:12:32;;;;;;;33.20;19.90;;;;;;;;;;5049684;28;20040;-76
2022/04/30 02:14:59;;;;;;;33.28;20.80;;;;;;;;;;5049229;28;20025;-76
2022/04/30 02:17:26;;;;;;;31.83;20.13;;;;;;;;;;5049152;28;20029;-76
2022/04/30 02:22:39;;;;;;;34.35;20.63;;;;;;;;;;5046272;28;20159;-76
2022/04/30 02:25:09;;;;;;;30.55;19.98;;;;;;;;;;5048919;28;20513;-76
2022/04/30 02:27:36;;;;;;;30.98;20.38;;;;;;;;;;5048506;28;20467;-76
2022/04/30 02:30:04;;;;;;;28.42;19.02;;;;;;;;;;5046753;28;20037;-76
2022/04/30 02:32:41;;;;;;;30.40;19.90;;;;;;;;;;5048914;28;20025;-76
2022/04/30 02:35:08;;;;;;;31.17;19.85;;;;;;;;;;5048836;28;20116;-76
2022/04/30 02:37:35;;;;;;;29.45;19.10;;;;;;;;;;5047499;28;20112;-76
2022/04/30 02:40:00;;;;;;;29.30;19.10;;;;;;;;;;5045399;28;20112;-75
2022/04/30 02:42:26;;;;;;;31.33;19.75;;;;;;;;;;5048689;28;20494;-76
2022/04/30 02:44:52;;;;;;;31.38;20.35;;;;;;;;;;5048868;28;20528;-76
2022/04/30 02:47:17;;;;;;;29.80;20.52;;;;;;;;;;5048725;28;20032;-76
2022/04/30 02:49:42;;;;;;;29.38;19.92;;;;;;;;;;5048482;28;20021;-76
2022/04/30 02:52:08;;;;;;;30.38;19.80;;;;;;;;;;5048682;28;20471;-76
2022/04/30 02:54:34;;;;;;;30.38;19.98;;;;;;;;;;5047885;28;20107;-76
2022/04/30 02:57:01;;;;;;;32.30;20.98;;;;;;;;;;5048602;28;20041;-75
2022/04/30 03:02:10;;;;;;;31.08;19.50;;;;;;;;;;5048498;28;20032;-76
2022/04/30 03:04:35;;;;;;;30.60;19.63;;;;;;;;;;5052239;28;20471;-76
2022/04/30 03:07:01;;;;;;;29.50;19.27;;;;;;;;;;5052726;28;20021;-76
2022/04/30 03:09:26;;;;;;;28.83;19.35;;;;;;;;;;5051494;28;20096;-75
2022/04/30 03:11:51;;;;;;;32.25;20.02;;;;;;;;;;5051848;28;20124;-76
2022/04/30 03:14:17;;;;;;;29.92;19.55;;;;;;;;;;5052565;28;20025;-76
2022/04/30 03:22:10;;;;;;;30.42;19.85;;;;;;;;;;5052685;28;20027;-76
2022/04/30 03:24:35;;;;;;;32.38;19.95;;;;;;;;;;5052815;28;20024;-76
2022/04/30 03:27:01;;;;;;;31.92;19.80;;;;;;;;;;5050633;28;20433;-76
2022/04/30 03:29:27;;;;;;;34.03;21.02;;;;;;;;;;5051907;28;20356;-75
2022/04/30 03:31:52;;;;;;;32.50;20.98;;;;;;;;;;5052354;28;20530;-76
2022/04/30 03:34:18;;;;;;;35.28;22.15;;;;;;;;;;5052164;28;20131;-75
2022/04/30 03:36:43;;;;;;;31.27;20.70;;;;;;;;;;5051922;28;20399;-75
2022/04/30 03:39:09;;;;;;;34.72;20.98;;;;;;;;;;5051930;28;20108;-76
2022/04/30 03:41:35;;;;;;;34.08;22.20;;;;;;;;;;5052042;28;20029;-76
2022/04/30 03:44:02;;;;;;;37.90;24.02;;;;;;;;;;5051512;28;20020;-76
2022/04/30 03:46:28;;;;;;;35.83;23.33;;;;;;;;;;5051902;28;20033;-76
2022/04/30 03:48:53;;;;;;;36.75;23.60;;;;;;;;;;5050975;28;20025;-75
2022/04/30 03:51:23;;;;;;;38.58;24.60;;;;;;;;;;5051211;28;20021;-76
2022/04/30 03:53:49;;;;;;;40.33;24.77;;;;;;;;;;5051761;28;20127;-76
2022/04/30 03:56:17;;;;;;;37.90;23.45;;;;;;;;;;5051768;28;20040;-76
2022/04/30 03:58:47;;;;;;;40.47;23.38;;;;;;;;;;5051453;28;20114;-75
2022/04/30 04:01:14;;;;;;;34.88;23.23;;;;;;;;;;5051768;28;20039;-76
2022/04/30 04:03:40;;;;;;;37.28;23.95;;;;;;;;;;5050730;28;20091;-76
2022/04/30 04:06:06;;;;;;;35.65;22.23;;;;;;;;;;5051479;28;20094;-75
2022/04/30 04:08:32;;;;;;;35.50;23.33;;;;;;;;;;5051876;28;20025;-76
2022/04/30 04:10:57;;;;;;;33.08;22.00;;;;;;;;;;5051628;28;20403;-76
2022/04/30 04:18:55;;;;;;;34.85;21.10;;;;;;;;;;5050573;28;20047;-76
2022/04/30 04:21:21;;;;;;;33.40;20.88;;;;;;;;;;5051730;28;20130;-75
2022/04/30 04:26:31;;;;;;;28.80;19.02;;;;;;;;;;5051786;28;20039;-76
2022/04/30 04:28:56;;;;;;;31.02;19.63;;;;;;;;;;5051724;28;20111;-76
2022/04/30 04:31:22;;;;;;;30.38;20.42;;;;;;;;;;5051881;28;20413;-76
2022/04/30 04:33:49;;;;;;;28.45;19.00;;;;;;;;;;5052051;28;20025;-77
2022/04/30 04:36:14;;;;;;;27.55;18.75;;;;;;;;;;5049101;28;20029;-76
2022/04/30 04:38:39;;;;;;;31.75;19.95;;;;;;;;;;5051379;28;20031;-76
2022/04/30 04:41:05;;;;;;;29.05;18.80;;;;;;;;;;5051260;28;20063;-76
2022/04/30 04:43:30;;;;;;;28.00;19.60;;;;;;;;;;5051031;28;20501;-76
2022/04/30 04:45:55;;;;;;;30.95;20.05;;;;;;;;;;5050902;28;20559;-76
2022/04/30 04:48:22;;;;;;;30.67;18.88;;;;;;;;;;5050544;28;20040;-76
2022/04/30 04:50:47;;;;;;;27.33;19.65;;;;;;;;;;5049977;28;20318;-77
2022/04/30 04:53:13;;;;;;;31.00;19.70;;;;;;;;;;5048765;28;20033;-77
2022/04/30 04:55:39;;;;;;;28.75;19.73;;;;;;;;;;5050580;28;20086;-76
2022/04/30 04:58:04;;;;;;;32.30;19.88;;;;;;;;;;5049006;28;20040;-77
2022/04/30 05:00:29;;;;;;;27.00;18.15;;;;;;;;;;5051001;28;20078;-76
2022/04/30 05:02:55;;;;;;;30.33;18.55;;;;;;;;;;5050521;28;20086;-76
2022/04/30 05:05:21;;;;;;;31.23;19.63;;;;;;;;;;5050554;28;20048;-76
2022/04/30 05:07:46;;;;;;;27.52;18.48;;;;;;;;;;5049291;28;20406;-76
2022/04/30 05:10:11;;;;;;;27.95;18.27;;;;;;;;;;5050334;28;20033;-76
2022/04/30 05:12:37;;;;;;;25.15;17.80;;;;;;;;;;5050420;28;20127;-76
2022/04/30 05:15:02;;;;;;;24.38;16.60;;;;;;;;;;5050821;28;20500;-78
2022/04/30 05:17:28;;;;;;;27.33;17.55;;;;;;;;;;5050903;28;20041;-77
2022/04/30 05:19:53;;;;;;;25.20;17.23;;;;;;;;;;5050569;28;20032;-76
2022/04/30 05:22:18;;;;;;;43.53;29.05;;;;;;;;;;5050707;28;20025;-76
2022/04/30 05:24:44;;;;;;;32.25;21.25;;;;;;;;;;5048704;28;20028;-77
2022/04/30 05:27:09;;;;;;;25.73;17.17;;;;;;;;;;5049990;28;20021;-77
2022/04/30 05:29:35;;;;;;;24.80;17.50;;;;;;;;;;5050247;28;20029;-77
2022/04/30 05:32:00;;;;;;;24.85;16.48;;;;;;;;;;5050198;28;20036;-77
2022/04/30 05:34:27;;;;;;;22.08;16.40;;;;;;;;;;5049147;28;20040;-77
2022/04/30 05:36:53;;;;;;;26.00;15.60;;;;;;;;;;5049895;28;20474;-77
2022/04/30 05:39:18;;;;;;;22.77;15.70;;;;;;;;;;5044701;28;20107;-77
2022/04/30 05:41:43;;;;;;;23.27;15.90;;;;;;;;;;5049166;28;20025;-77
2022/04/30 05:44:09;;;;;;;21.42;15.52;;;;;;;;;;5050563;28;20206;-76
2022/04/30 05:46:34;;;;;;;25.38;16.15;;;;;;;;;;5064786;28;20024;-77
2022/04/30 05:48:59;;;;;;;22.13;15.32;;;;;;;;;;5063276;28;20040;-76
2022/04/30 05:51:25;;;;;;;23.02;14.93;;;;;;;;;;5048750;28;20043;-76
2022/04/30 05:53:50;;;;;;;21.95;14.82;;;;;;;;;;5049641;28;20021;-77
2022/04/30 05:56:17;;;;;;;22.73;15.45;;;;;;;;;;5048500;28;20035;-77
2022/04/30 05:58:43;;;;;;;26.20;18.15;;;;;;;;;;5046630;28;20486;-75
2022/04/30 06:01:09;;;;;;;25.48;19.20;;;;;;;;;;5049637;28;20035;-77
2022/04/30 06:03:34;;;;;;;21.20;15.27;;;;;;;;;;5049456;28;20213;-76
2022/04/30 06:06:00;;;;;;;21.90;15.23;;;;;;;;;;5048511;28;20492;-75
2022/04/30 06:08:25;;;;;;;21.02;15.02;;;;;;;;;;5048791;28;20086;-76
2022/04/30 06:10:50;;;;;;;23.40;15.38;;;;;;;;;;5049565;28;20383;-76
2022/04/30 06:13:16;;;;;;;23.60;15.32;;;;;;;;;;5049742;28;20563;-77
2022/04/30 06:15:42;;;;;;;23.52;15.32;;;;;;;;;;5049537;28;20028;-75
2022/04/30 06:18:08;;;;;;;20.88;14.45;;;;;;;;;;5048283;28;20056;-76
2022/04/30 06:20:33;;;;;;;20.83;14.52;;;;;;;;;;5049391;28;20109;-76
2022/04/30 06:22:59;;;;;;;76.43;39.33;;;;;;;;;;5049731;28;20052;-76
2022/04/30 06:25:24;;;;;;;36.97;22.67;;;;;;;;;;5044899;28;20490;-77
2022/04/30 06:27:50;;;;;;;24.92;18.05;;;;;;;;;;5047698;28;20033;-77
2022/04/30 06:30:15;;;;;;;21.65;14.68;;;;;;;;;;5046162;28;20283;-77
2022/04/30 06:32:40;;;;;;;25.13;16.38;;;;;;;;;;5053663;28;20025;-75
2022/04/30 06:35:06;;;;;;;25.55;17.02;;;;;;;;;;5046969;28;20404;-76
2022/04/30 06:37:31;;;;;;;20.45;15.80;;;;;;;;;;5047651;28;20047;-78
2022/04/30 06:39:57;;;;;;;22.30;15.95;;;;;;;;;;5047398;28;20376;-78
2022/04/30 06:42:22;;;;;;;21.27;15.18;;;;;;;;;;5048181;28;20044;-76
2022/04/30 06:44:47;;;;;;;20.60;15.15;;;;;;;;;;5051703;28;20590;-77
2022/04/30 06:47:14;;;;;;;20.15;14.88;;;;;;;;;;5042915;28;20055;-77
2022/04/30 06:49:39;;;;;;;19.50;14.82;;;;;;;;;;5048899;28;20097;-77
2022/04/30 06:52:05;;;;;;;26.58;15.55;;;;;;;;;;5049761;28;20021;-76
2022/04/30 06:57:17;;;;;;;23.33;16.48;;;;;;;;;;5049882;28;20035;-77
2022/04/30 06:59:45;;;;;;;19.63;14.45;;;;;;;;;;5049513;28;20025;-75
2022/04/30 07:02:18;;;;;;;18.85;15.02;;;;;;;;;;5048701;28;20517;-76
2022/04/30 07:04:46;;;;;;;21.40;15.68;;;;;;;;;;5048320;28;20059;-77
2022/04/30 07:07:12;;;;;;;21.08;15.00;;;;;;;;;;5046221;28;20055;-77
2022/04/30 07:09:38;;;;;;;21.67;14.75;;;;;;;;;;5048873;28;20104;-77
2022/04/30 07:12:06;;;;;;;18.92;14.63;;;;;;;;;;5049350;28;20501;-77
2022/04/30 07:14:37;;;;;;;20.63;14.98;;;;;;;;;;5049601;28;20049;-75
2022/04/30 07:17:13;;;;;;;22.95;14.77;;;;;;;;;;5048189;28;20029;-76
2022/04/30 07:19:39;;;;;;;22.67;14.30;;;;;;;;;;5049182;28;20670;-76
2022/04/30 07:22:07;;;;;;;19.55;14.32;;;;;;;;;;5049114;28;20033;-76
2022/04/30 07:24:33;;;;;;;19.33;14.57;;;;;;;;;;5047942;28;20028;-76
2022/04/30 07:26:58;;;;;;;20.60;14.40;;;;;;;;;;5049480;28;20025;-78
2022/04/30 07:29:24;;;;;;;19.52;14.45;;;;;;;;;;5050160;28;20102;-77
2022/04/30 07:31:49;;;;;;;17.95;12.90;;;;;;;;;;5050420;28;20122;-78
2022/04/30 07:34:15;;;;;;;16.65;13.25;;;;;;;;;;5048367;28;20033;-77
2022/04/30 07:36:40;;;;;;;18.02;14.20;;;;;;;;;;5049260;28;20056;-77
2022/04/30 07:39:06;;;;;;;17.80;13.48;;;;;;;;;;5050242;28;20036;-76
2022/04/30 07:41:31;;;;;;;20.60;12.60;;;;;;;;;;5050585;28;20084;-78
2022/04/30 07:43:57;;;;;;;18.42;13.77;;;;;;;;;;5049579;28;20117;-76
2022/04/30 07:46:22;;;;;;;20.52;14.13;;;;;;;;;;5049013;28;20036;-76
2022/04/30 07:48:49;;;;;;;18.98;13.38;;;;;;;;;;5048637;28;20021;-76
2022/04/30 07:51:18;;;;;;;17.67;13.65;;;;;;;;;;5051955;28;20028;-77
2022/04/30 07:53:44;;;;;;;18.58;13.05;;;;;;;;;;5052822;28;20032;-75
2022/04/30 07:56:09;;;;;;;17.48;13.40;;;;;;;;;;5052544;28;20025;-77
2022/04/30 07:58:35;;;;;;;18.70;13.82;;;;;;;;;;5052126;28;20086;-77
2022/04/30 08:01:00;;;;;;;19.77;13.70;;;;;;;;;;5052233;28;20029;-76
2022/04/30 08:03:25;;;;;;;20.80;14.20;;;;;;;;;;5050730;28;20027;-74
2022/04/30 08:05:51;;;;;;;18.52;13.90;;;;;;;;;;5050410;28;20028;-75
2022/04/30 08:08:16;;;;;;;20.05;13.52;;;;;;;;;;5051493;28;20032;-74
2022/04/30 08:10:42;;;;;;;18.58;13.57;;;;;;;;;;5051821;28;20086;-77
2022/04/30 08:13:07;;;;;;;16.85;12.25;;;;;;;;;;5052451;28;20553;-77
2022/04/30 08:15:32;;;;;;;19.10;13.30;;;;;;;;;;5051900;28;20028;-75
2022/04/30 08:17:58;;;;;;;19.60;12.63;;;;;;;;;;5052430;28;20032;-77
2022/04/30 08:20:23;;;;;;;18.77;13.27;;;;;;;;;;5049232;28;20128;-77
2022/04/30 08:22:49;;;;;;;27.52;18.75;;;;;;;;;;5052184;28;20036;-77
2022/04/30 08:25:14;;;;;;;22.52;15.85;;;;;;;;;;5063055;28;20279;-77
2022/04/30 08:27:41;;;;;;;25.40;18.70;;;;;;;;;;5064580;28;20039;-76
2022/04/30 08:30:07;;;;;;;18.75;13.63;;;;;;;;;;5072360;28;20027;-77
2022/04/30 08:32:32;;;;;;;18.08;13.52;;;;;;;;;;5060155;28;20025;-77
2022/04/30 08:34:59;;;;;;;18.00;13.40;;;;;;;;;;5050041;28;20028;-77
2022/04/30 08:37:26;;;;;;;18.83;13.82;;;;;;;;;;5042589;28;20033;-76
2022/04/30 08:39:52;;;;;;;20.10;14.02;;;;;;;;;;5049698;28;20282;-76
2022/04/30 08:42:20;;;;;;;17.88;12.57;;;;;;;;;;5049375;28;20686;-77
2022/04/30 08:44:45;;;;;;;20.33;14.00;;;;;;;;;;5050426;28;20025;-77
2022/04/30 08:47:13;;;;;;;17.67;14.30;;;;;;;;;;5048821;28;20048;-78
2022/04/30 08:49:41;;;;;;;18.63;13.25;;;;;;;;;;5050491;28;20067;-75
2022/04/30 08:52:08;;;;;;;19.15;12.90;;;;;;;;;;5050740;28;20061;-75
2022/04/30 08:54:33;;;;;;;17.58;12.50;;;;;;;;;;5050842;28;20548;-76
2022/04/30 08:56:58;;;;;;;18.38;13.77;;;;;;;;;;5049243;28;20423;-76
2022/04/30 08:59:24;;;;;;;17.67;12.88;;;;;;;;;;5042061;28;20053;-77
2022/04/30 09:01:52;;;;;;;22.48;13.73;;;;;;;;;;5047829;28;20037;-78
2022/04/30 09:04:19;;;;;;;20.75;13.50;;;;;;;;;;5049741;28;20506;-79
2022/04/30 09:06:45;;;;;;;20.10;13.88;;;;;;;;;;5049873;28;20029;-79
2022/04/30 09:09:11;;;;;;;20.63;16.15;;;;;;;;;;5049612;28;20025;-78
2022/04/30 09:11:38;;;;;;;16.65;12.35;;;;;;;;;;5069104;22;20047;-76
2022/04/30 09:14:04;;;;;;;21.20;13.20;;;;;;;;;;5049661;28;20036;-76
2022/04/30 09:16:29;;;;;;;18.38;13.20;;;;;;;;;;5050776;28;20033;-72
2022/04/30 09:19:02;;;;;;;18.52;12.10;;;;;;;;;;5050515;28;20024;-74
2022/04/30 09:21:27;;;;;;;;;;;;;;;;;;5051022;28;20028;-74
2022/04/30 09:24:02;;;;;;;16.67;11.67;;;;;;;;;;5048425;28;19948;-74
2022/04/30 09:26:41;;;;;;;17.00;12.25;;;;;;;;;;5042306;28;20258;-74
2022/04/30 09:29:22;;;;;;;17.70;12.02;;;;;;;;;;5051819;28;20086;-73
2022/04/30 09:31:52;;;;;;;15.27;11.00;;;;;;;;;;5057903;28;20033;-74
2022/04/30 09:39:50;;;;;;;15.30;11.88;;;;;;;;;;5050853;28;20062;-77
2022/04/30 09:42:16;;;;;;;21.25;12.10;;;;;;;;;;5049678;28;20032;-76
2022/04/30 09:44:43;;;;;;;17.75;11.43;;;;;;;;;;5048065;28;20037;-77
2022/04/30 09:47:08;;;;;;;16.63;12.15;;;;;;;;;;5049063;28;20028;-77
2022/04/30 09:55:06;;;;;;;20.15;12.23;;;;;;;;;;5047528;28;20493;-77
2022/04/30 09:57:34;;;;;;;14.63;11.98;;;;;;;;;;5050056;28;20020;-76
2022/04/30 10:00:00;;;;;;;15.75;12.15;;;;;;;;;;5049743;28;20056;-77
2022/04/30 10:02:30;;;;;;;18.65;12.50;;;;;;;;;;5049962;28;20087;-77
2022/04/30 10:04:56;;;;;;;14.95;11.30;;;;;;;;;;5048463;28;20024;-77
2022/04/30 10:07:24;;;;;;;22.05;11.43;;;;;;;;;;5050295;28;20239;-78
2022/04/30 10:10:21;;;;;;;17.83;11.55;;;;;;;;;;5045168;28;20032;-76
2022/04/30 10:12:55;;;;;;;19.70;11.82;;;;;;;;;;5030217;28;20040;-80
2022/04/30 10:15:30;;;;;;;15.07;11.32;;;;;;;;;;5047831;28;20505;-75
2022/04/30 10:17:57;;;;;;;16.10;11.95;;;;;;;;;;5048961;28;20112;-76
2022/04/30 10:20:34;;;;;;;18.38;12.25;;;;;;;;;;5049390;28;20028;-77
2022/04/30 10:23:00;;;;;;;17.83;12.23;;;;;;;;;;5051012;28;20557;-77
2022/04/30 10:25:33;;;;;;;15.95;11.82;;;;;;;;;;5036497;28;20036;-77
2022/04/30 10:28:02;;;;;;;15.55;11.60;;;;;;;;;;5049934;28;20017;-77
2022/04/30 10:30:28;;;;;;;16.10;11.90;;;;;;;;;;5039751;28;20029;-78
2022/04/30 10:33:06;;;;;;;15.55;11.50;;;;;;;;;;5046323;28;20087;-81
2022/04/30 10:35:36;;;;;;;17.85;13.15;;;;;;;;;;5029716;28;20068;-77
2022/04/30 10:38:16;;;;;;;17.83;12.55;;;;;;;;;;5043407;28;20616;-78
2022/04/30 10:40:46;;;;;;;17.88;12.18;;;;;;;;;;5047658;28;20037;-76
2022/04/30 10:43:19;;;;;;;16.58;12.07;;;;;;;;;;5054044;28;20040;-77
2022/04/30 10:45:45;;;;;;;17.27;11.70;;;;;;;;;;5049557;28;20029;-78
2022/04/30 10:48:11;;;;;;;16.30;12.13;;;;;;;;;;5049802;28;20027;-76
2022/04/30 10:50:36;;;;;;;19.40;13.45;;;;;;;;;;5054425;28;20580;-77
2022/04/30 10:53:02;;;;;;;17.95;12.40;;;;;;;;;;5066361;28;20389;-77
2022/04/30 10:55:29;;;;;;;17.33;12.48;;;;;;;;;;5055133;28;20375;-80
2022/04/30 10:57:54;;;;;;;14.95;11.30;;;;;;;;;;5047434;28;20090;-77
2022/04/30 11:00:22;;;;;;;20.10;12.70;;;;;;;;;;5048956;28;20437;-76
2022/04/30 11:02:49;;;;;;;14.65;12.48;;;;;;;;;;5047865;28;20087;-75
2022/04/30 11:05:19;;;;;;;17.40;11.88;;;;;;;;;;5047029;28;20038;-75
2022/04/30 11:07:46;;;;;;;15.68;11.68;;;;;;;;;;5046072;28;20025;-75
2022/04/30 11:10:12;;;;;;;12.88;9.50;;;;;;;;;;5048174;28;20082;-77
2022/04/30 11:12:37;;;;;;;14.68;10.43;;;;;;;;;;5047823;28;20021;-76
2022/04/30 11:15:03;;;;;;;13.80;10.40;;;;;;;;;;5048071;28;20036;-76
2022/04/30 11:17:28;;;;;;;13.15;10.13;;;;;;;;;;5048606;28;20071;-76
2022/04/30 11:19:55;;;;;;;11.27;9.70;;;;;;;;;;5045556;28;20037;-75
2022/04/30 11:22:21;;;;;;;12.07;9.38;;;;;;;;;;5047014;28;20154;-76
2022/04/30 11:24:47;;;;;;;13.25;10.45;;;;;;;;;;5048451;28;20497;-77
2022/04/30 11:27:15;;;;;;;14.65;11.02;;;;;;;;;;5053007;28;20036;-76
2022/04/30 11:29:55;;;;;;;16.75;10.93;;;;;;;;;;5052886;28;20032;-75
2022/04/30 11:32:29;;;;;;;13.30;10.32;;;;;;;;;;5051902;28;20343;-75
2022/04/30 11:35:00;;;;;;;14.52;9.75;;;;;;;;;;5052803;28;20075;-75
2022/04/30 11:37:25;;;;;;;12.00;8.80;;;;;;;;;;5050591;28;20036;-74
2022/04/30 11:39:51;;;;;;;10.13;8.00;;;;;;;;;;5052614;28;20426;-77
2022/04/30 11:42:16;;;;;;;9.73;7.22;;;;;;;;;;5055216;28;20513;-77
2022/04/30 11:44:43;;;;;;;10.70;8.45;;;;;;;;;;5051657;28;20040;-75
2022/04/30 11:47:09;;;;;;;14.73;9.00;;;;;;;;;;5052231;28;20542;-77
2022/04/30 11:49:35;;;;;;;12.30;8.30;;;;;;;;;;5050783;28;20108;-76
2022/04/30 11:52:01;;;;;;;7.72;6.82;;;;;;;;;;5051692;28;20364;-75
2022/04/30 11:54:28;;;;;;;11.13;8.23;;;;;;;;;;5044217;28;20043;-78
2022/04/30 11:56:53;;;;;;;11.35;8.45;;;;;;;;;;5052493;28;20036;-77
2022/04/30 11:59:48;;;;;;;9.43;7.72;;;;;;;;;;5051001;28;20397;-76
2022/04/30 12:02:15;;;;;;;8.23;6.70;;;;;;;;;;5040821;28;20044;-77
2022/04/30 12:04:41;;;;;;;9.00;6.13;;;;;;;;;;5052402;28;20021;-77
2022/04/30 12:07:08;;;;;;;10.52;6.50;;;;;;;;;;5050415;28;20453;-77
2022/04/30 12:09:37;;;;;;;10.15;6.70;;;;;;;;;;5051140;28;20589;-77
2022/04/30 12:12:16;;;;;;;7.28;6.25;;;;;;;;;;5048686;28;20137;-77
2022/04/30 12:14:46;;;;;;;7.70;6.35;;;;;;;;;;5048290;28;20024;-74
2022/04/30 12:17:12;;;;;;;7.90;5.93;;;;;;;;;;5049234;28;20029;-77
2022/04/30 12:25:18;;;;;;;8.30;5.97;;;;;;;;;;5052405;28;20032;-76
2022/04/30 12:27:53;;;;;;;;;;;;;;;;;;5052847;28;20477;-77
2022/04/30 12:30:20;;;;;;;6.13;5.53;;;;;;;;;;5051803;28;19916;-76
2022/04/30 12:32:49;;;;;;;7.78;5.78;;;;;;;;;;5050033;28;20032;-76
2022/04/30 12:35:23;;;;;;;7.43;5.22;;;;;;;;;;5049804;28;20084;-75
2022/04/30 12:37:49;;;;;;;6.70;5.93;;;;;;;;;;5051987;28;20856;-74
2022/04/30 12:40:15;;;;;;;8.52;5.70;;;;;;;;;;5061423;28;20482;-76
2022/04/30 12:42:41;;;;;;;6.53;5.03;;;;;;;;;;5059546;28;20063;-75
2022/04/30 12:45:07;;;;;;;6.13;4.90;;;;;;;;;;5058493;28;20031;-77
2022/04/30 12:47:32;;;;;;;6.45;4.63;;;;;;;;;;5051705;28;20102;-76
2022/04/30 12:49:58;;;;;;;6.75;4.55;;;;;;;;;;5050281;28;20160;-77
2022/04/30 12:52:24;;;;;;;7.07;5.47;;;;;;;;;;5051282;28;20060;-77
2022/04/30 12:54:50;;;;;;;7.30;4.70;;;;;;;;;;5051047;28;20047;-77
2022/04/30 12:57:15;;;;;;;5.82;4.70;;;;;;;;;;5060656;28;20016;-77
2022/04/30 12:59:42;;;;;;;5.90;5.03;;;;;;;;;;5069568;28;20687;-76
2022/04/30 13:02:08;;;;;;;6.68;4.28;;;;;;;;;;5064434;28;20040;-77
2022/04/30 13:04:34;;;;;;;9.05;4.97;;;;;;;;;;5054143;28;20024;-76
2022/04/30 13:06:59;;;;;;;7.43;5.43;;;;;;;;;;5055194;28;20029;-76
2022/04/30 13:14:53;;;;;;;7.85;5.38;;;;;;;;;;5048084;28;20102;-76
2022/04/30 13:17:18;;;;;;;6.65;4.93;;;;;;;;;;5054158;28;20041;-76
2022/04/30 13:19:44;;;;;;;5.50;4.63;;;;;;;;;;5047800;28;20029;-77
2022/04/30 13:22:10;;;;;;;4.40;4.00;;;;;;;;;;5046682;28;20421;-75
2022/04/30 13:24:35;;;;;;;5.47;4.65;;;;;;;;;;5048976;28;20027;-75
2022/04/30 13:27:01;;;;;;;5.15;4.55;;;;;;;;;;5051691;28;20103;-77
2022/04/30 13:29:26;;;;;;;6.97;4.47;;;;;;;;;;5049329;28;20559;-77
2022/04/30 13:31:52;;;;;;;5.22;4.50;;;;;;;;;;5050552;28;20429;-77
2022/04/30 13:34:20;;;;;;;6.50;5.53;;;;;;;;;;5050175;28;20048;-75
2022/04/30 13:36:46;;;;;;;7.25;5.25;;;;;;;;;;5045242;28;20049;-76
2022/04/30 13:39:12;;;;;;;7.50;5.50;;;;;;;;;;5047490;28;20135;-76
2022/04/30 13:41:37;;;;;;;7.72;5.28;;;;;;;;;;5049895;28;20032;-76
2022/04/30 13:44:03;;;;;;;6.03;4.50;;;;;;;;;;5052474;28;20032;-77
2022/04/30 13:46:28;;;;;;;7.13;4.63;;;;;;;;;;5049965;28;20025;-78
2022/04/30 13:48:53;;;;;;;5.25;4.68;;;;;;;;;;5050189;28;20229;-77
2022/04/30 13:51:19;;;;;;;6.78;5.20;;;;;;;;;;5048669;28;20072;-77
2022/04/30 13:53:44;;;;;;;5.40;4.25;;;;;;;;;;5049613;28;20501;-77
2022/04/30 13:56:10;;;;;;;6.35;4.78;;;;;;;;;;5049997;28;20025;-76
2022/04/30 13:58:36;;;;;;;9.25;5.15;;;;;;;;;;5051799;28;20053;-77
2022/04/30 14:01:02;;;;;;;7.18;4.75;;;;;;;;;;5052854;28;20071;-78
2022/04/30 14:03:28;;;;;;;4.88;4.45;;;;;;;;;;5052001;28;20054;-77
2022/04/30 14:05:54;;;;;;;6.80;4.75;;;;;;;;;;5051836;28;20488;-77
2022/04/30 14:08:19;;;;;;;5.72;4.07;;;;;;;;;;5049535;28;20021;-77
2022/04/30 14:10:45;;;;;;;5.53;4.40;;;;;;;;;;5051321;28;20047;-76
2022/04/30 14:15:55;;;;;;;4.55;4.15;;;;;;;;;;5048279;28;20047;-75
2022/04/30 14:18:24;;;;;;;6.85;5.10;;;;;;;;;;5045369;28;20490;-77
2022/04/30 14:20:50;;;;;;;12.15;8.18;;;;;;;;;;5047388;28;20025;-77
2022/04/30 14:23:15;;;;;;;6.68;4.72;;;;;;;;;;5049542;28;20115;-77
2022/04/30 14:25:42;;;;;;;5.55;5.05;;;;;;;;;;5050279;28;20538;-77
2022/04/30 14:28:09;;;;;;;7.22;5.63;;;;;;;;;;5050674;28;20021;-76
2022/04/30 14:30:34;;;;;;;5.90;4.60;;;;;;;;;;5051262;28;20027;-78
2022/04/30 14:33:01;;;;;;;6.80;4.70;;;;;;;;;;5049380;28;20473;-76
2022/04/30 14:35:27;;;;;;;6.68;5.05;;;;;;;;;;5050057;28;20052;-77
2022/04/30 14:37:52;;;;;;;6.65;5.13;;;;;;;;;;5048897;28;20060;-77
2022/04/30 14:40:17;;;;;;;6.65;5.15;;;;;;;;;;5048103;28;20033;-77
2022/04/30 14:42:44;;;;;;;6.57;4.88;;;;;;;;;;5049250;28;20115;-77
2022/04/30 14:45:10;;;;;;;7.00;4.85;;;;;;;;;;5049172;28;20036;-77
2022/04/30 14:47:36;;;;;;;7.60;4.47;;;;;;;;;;5048705;28;20024;-77
2022/04/30 14:50:02;;;;;;;5.32;4.28;;;;;;;;;;5049716;28;20031;-80
2022/04/30 14:52:28;;;;;;;5.53;4.57;;;;;;;;;;5051213;28;20021;-77
2022/04/30 14:54:56;;;;;;;5.07;4.57;;;;;;;;;;5051731;28;20029;-77
2022/04/30 14:57:21;;;;;;;6.65;4.28;;;;;;;;;;5050787;28;20040;-78
2022/04/30 14:59:46;;;;;;;6.07;4.40;;;;;;;;;;5048628;28;20039;-76
2022/04/30 15:02:12;;;;;;;5.25;3.80;;;;;;;;;;5049025;28;20518;-77
2022/04/30 15:04:37;;;;;;;4.40;4.00;;;;;;;;;;5049675;28;20052;-79
2022/04/30 15:07:03;;;;;;;5.65;3.58;;;;;;;;;;5051216;28;20494;-73
2022/04/30 15:09:28;;;;;;;3.40;3.10;;;;;;;;;;5049930;28;20090;-80
2022/04/30 15:11:54;;;;;;;3.50;3.20;;;;;;;;;;5050985;22;20041;-73
2022/04/30 15:14:19;;;;;;;4.32;3.35;;;;;;;;;;5027676;28;20402;-73